Time;durP1;ratioP1;P1;durP2;ratioP2;P2;SDS_P1;SDS_P2;PMS_P1;PMS_P2;Temp;Humidity;BMP_temperature;BMP_pressure;BME280_temperature;BME280_humidity;BME280_pressure;Samples;Min_cycle;Max_cycle;Signal;HPM_P1;HPM_P2
2022/04/14 00:02:26;;;;;;;12.27;10.48;;;15.90;99.90;;;;;;5013101;28;20682;-62
2022/04/14 00:04:54;;;;;;;11.98;10.77;;;15.90;99.90;;;;;;5012870;28;20204;-61
2022/04/14 00:07:22;;;;;;;11.55;10.15;;;15.80;99.90;;;;;;5013532;28;20265;-61
2022/04/14 00:09:51;;;;;;;13.88;10.88;;;15.80;99.90;;;;;;5013063;28;20204;-62
2022/04/14 00:12:19;;;;;;;11.98;10.35;;;15.80;99.90;;;;;;5013069;28;20249;-61
2022/04/14 00:14:47;;;;;;;12.52;10.25;;;15.80;99.90;;;;;;5013185;28;20729;-62
2022/04/14 00:17:15;;;;;;;16.27;13.05;;;15.80;99.90;;;;;;5013320;28;20304;-61
2022/04/14 00:19:43;;;;;;;16.75;12.27;;;15.80;99.90;;;;;;5013110;28;20197;-62
2022/04/14 00:22:10;;;;;;;15.45;12.48;;;15.70;99.90;;;;;;5012422;28;20304;-62
2022/04/14 00:24:38;;;;;;;13.32;11.75;;;15.70;99.90;;;;;;5013151;28;20744;-62
2022/04/14 00:27:07;;;;;;;12.52;11.20;;;15.70;99.90;;;;;;5012996;28;20228;-62
2022/04/14 00:29:35;;;;;;;11.60;10.60;;;15.70;99.90;;;;;;5012908;28;20253;-61
2022/04/14 00:32:03;;;;;;;15.05;11.30;;;15.70;99.90;;;;;;5012362;28;20765;-61
2022/04/14 00:34:32;;;;;;;15.27;12.15;;;15.70;99.90;;;;;;5011311;28;20292;-60
2022/04/14 00:37:00;;;;;;;14.45;10.70;;;15.70;99.90;;;;;;5012812;28;20217;-61
2022/04/14 00:39:28;;;;;;;11.18;10.18;;;15.70;99.90;;;;;;5012815;28;20202;-61
2022/04/14 00:41:56;;;;;;;13.75;12.48;;;15.70;99.90;;;;;;5012760;28;20228;-60
2022/04/14 00:44:25;;;;;;;16.27;11.00;;;15.70;99.90;;;;;;5012357;28;20241;-61
2022/04/14 00:46:53;;;;;;;15.45;11.45;;;15.70;99.90;;;;;;5013018;28;20276;-61
2022/04/14 00:49:21;;;;;;;12.75;11.57;;;15.60;99.90;;;;;;5012829;28;20281;-61
2022/04/14 00:51:49;;;;;;;12.27;11.00;;;15.60;99.90;;;;;;5012807;28;20197;-61
2022/04/14 00:54:18;;;;;;;12.63;11.20;;;15.60;99.90;;;;;;5011897;28;20248;-61
2022/04/14 00:56:46;;;;;;;13.60;11.13;;;15.60;99.90;;;;;;5012188;28;20319;-61
2022/04/14 00:59:13;;;;;;;16.40;11.75;;;15.60;99.90;;;;;;5013411;28;20609;-61
2022/04/14 01:01:43;;;;;;;12.02;10.93;;;15.50;99.90;;;;;;5013022;28;20217;-61
2022/04/14 01:04:13;;;;;;;14.25;10.45;;;15.50;99.90;;;;;;5012196;28;20217;-61
2022/04/14 01:06:41;;;;;;;14.02;10.80;;;15.50;99.90;;;;;;5023273;28;20267;-61
2022/04/14 01:09:19;;;;;;;11.77;10.52;;;15.40;99.90;;;;;;5033617;28;20193;-61
2022/04/14 01:11:50;;;;;;;12.15;10.75;;;15.40;99.90;;;;;;5027831;28;20189;-61
2022/04/14 01:14:26;;;;;;;13.55;11.55;;;15.40;99.90;;;;;;5010070;28;20262;-61
2022/04/14 01:16:55;;;;;;;12.77;10.93;;;15.40;99.90;;;;;;5012716;28;20244;-60
2022/04/14 01:19:24;;;;;;;12.40;11.30;;;15.40;99.90;;;;;;5029803;28;20196;-61
2022/04/14 01:22:01;;;;;;;16.80;11.15;;;15.40;99.90;;;;;;5032007;28;20624;-60
2022/04/14 01:24:31;;;;;;;12.45;11.23;;;15.40;99.90;;;;;;5032208;28;20562;-61
2022/04/14 01:27:00;;;;;;;12.38;10.98;;;15.40;99.90;;;;;;5032050;28;20291;-62
2022/04/14 01:29:29;;;;;;;11.40;10.25;;;15.30;99.90;;;;;;5031570;28;20193;-62
2022/04/14 01:31:59;;;;;;;13.20;11.90;;;15.30;99.90;;;;;;5011715;28;20232;-61
2022/04/14 01:34:29;;;;;;;12.40;10.10;;;15.30;99.90;;;;;;5011688;28;20666;-61
2022/04/14 01:36:57;;;;;;;13.65;11.68;;;15.20;99.90;;;;;;5011737;28;20259;-62
2022/04/14 01:39:25;;;;;;;12.40;11.25;;;15.20;99.90;;;;;;5012016;28;20225;-61
2022/04/14 01:41:55;;;;;;;13.52;11.90;;;15.20;99.90;;;;;;5012121;28;20232;-61
2022/04/14 01:44:23;;;;;;;11.15;10.13;;;15.10;99.90;;;;;;5011299;28;20220;-61
2022/04/14 01:46:50;;;;;;;12.43;11.15;;;15.10;99.90;;;;;;5011769;28;20217;-61
2022/04/14 01:49:18;;;;;;;13.38;11.95;;;15.00;99.90;;;;;;5011589;28;20201;-61
2022/04/14 01:51:48;;;;;;;19.05;11.23;;;15.00;99.90;;;;;;5011700;28;20237;-61
2022/04/14 01:54:16;;;;;;;12.57;11.25;;;15.00;99.90;;;;;;5010900;28;20618;-61
2022/04/14 01:56:45;;;;;;;11.60;10.45;;;14.90;99.90;;;;;;5011490;28;20726;-61
2022/04/14 01:59:14;;;;;;;13.93;11.80;;;14.90;99.90;;;;;;5011607;28;20192;-61
2022/04/14 02:01:42;;;;;;;12.32;10.80;;;14.80;99.90;;;;;;5011557;28;20198;-61
2022/04/14 02:04:10;;;;;;;11.57;10.55;;;14.80;99.90;;;;;;5010783;28;20212;-61
2022/04/14 02:06:38;;;;;;;12.05;11.05;;;14.80;99.90;;;;;;5017071;28;20209;-61
2022/04/14 02:09:06;;;;;;;11.60;10.60;;;14.70;99.90;;;;;;5020055;28;20240;-61
2022/04/14 02:11:34;;;;;;;12.35;11.20;;;14.80;99.90;;;;;;5011554;28;20190;-61
2022/04/14 02:14:02;;;;;;;12.50;11.27;;;14.70;99.90;;;;;;5010513;28;20240;-61
2022/04/14 02:16:31;;;;;;;12.05;10.75;;;14.70;99.90;;;;;;5011328;28;20235;-60
2022/04/14 02:18:59;;;;;;;14.32;11.18;;;14.70;99.90;;;;;;5011583;28;20197;-61
2022/04/14 02:21:27;;;;;;;11.88;10.68;;;14.70;99.90;;;;;;5011493;28;20213;-62
2022/04/14 02:23:55;;;;;;;11.80;10.00;;;14.70;99.90;;;;;;5010473;28;20197;-62
2022/04/14 02:26:23;;;;;;;14.10;11.13;;;14.70;99.90;;;;;;5011128;28;20197;-62
2022/04/14 02:28:51;;;;;;;12.25;10.90;;;14.70;99.90;;;;;;5014700;28;20236;-61
2022/04/14 02:31:19;;;;;;;15.57;11.25;;;14.70;99.90;;;;;;5017909;28;20237;-62
2022/04/14 02:33:48;;;;;;;11.02;9.93;;;14.70;99.90;;;;;;5015620;28;20292;-61
2022/04/14 02:36:16;;;;;;;13.80;10.95;;;14.70;99.90;;;;;;5017511;28;20599;-61
2022/04/14 02:38:45;;;;;;;18.05;11.80;;;14.70;99.90;;;;;;5017850;28;20197;-61
2022/04/14 02:41:13;;;;;;;13.20;10.48;;;14.70;99.90;;;;;;5017601;28;20584;-61
2022/04/14 02:43:41;;;;;;;12.15;11.05;;;14.70;99.90;;;;;;5016666;28;20209;-61
2022/04/14 02:46:09;;;;;;;12.80;11.60;;;14.70;99.90;;;;;;5017570;28;20205;-61
2022/04/14 02:48:37;;;;;;;19.80;10.80;;;14.60;99.90;;;;;;5017590;28;20201;-61
2022/04/14 02:51:06;;;;;;;13.20;11.25;;;14.60;99.90;;;;;;5017609;28;20204;-61
2022/04/14 02:53:34;;;;;;;11.65;9.85;;;14.60;99.90;;;;;;5016857;28;20198;-61
2022/04/14 02:56:02;;;;;;;13.52;11.13;;;14.50;99.90;;;;;;5017288;28;20884;-62
2022/04/14 02:58:30;;;;;;;12.25;11.00;;;14.50;99.90;;;;;;5017264;28;20232;-62
2022/04/14 03:00:58;;;;;;;14.40;11.50;;;14.60;99.90;;;;;;5017589;28;20228;-61
2022/04/14 03:03:28;;;;;;;12.07;10.98;;;14.50;99.90;;;;;;5016995;28;20193;-61
2022/04/14 03:05:56;;;;;;;13.57;12.20;;;14.50;99.90;;;;;;5017240;28;20232;-60
2022/04/14 03:08:25;;;;;;;16.45;11.07;;;14.50;99.90;;;;;;4997682;28;20260;-61
2022/04/14 03:10:55;;;;;;;12.70;11.50;;;14.50;99.90;;;;;;4997833;28;20298;-61
2022/04/14 03:13:23;;;;;;;12.05;10.82;;;14.50;99.90;;;;;;4997261;28;20249;-61
2022/04/14 03:15:51;;;;;;;12.95;11.73;;;14.50;99.90;;;;;;4997571;28;20189;-61
2022/04/14 03:18:19;;;;;;;13.95;12.18;;;14.40;99.90;;;;;;5017248;28;20233;-61
2022/04/14 03:20:47;;;;;;;13.27;11.98;;;14.40;99.90;;;;;;5017190;28;20622;-61
2022/04/14 03:23:15;;;;;;;14.20;11.88;;;14.40;99.90;;;;;;5016703;28;20221;-61
2022/04/14 03:25:45;;;;;;;14.75;13.25;;;14.40;99.90;;;;;;5017156;28;20202;-61
2022/04/14 03:28:12;;;;;;;12.52;11.52;;;14.40;99.90;;;;;;5017295;28;20753;-61
2022/04/14 03:30:40;;;;;;;12.23;10.95;;;14.50;99.90;;;;;;5017316;28;20221;-62
2022/04/14 03:33:08;;;;;;;12.77;11.52;;;14.40;99.90;;;;;;5016478;28;20213;-61
2022/04/14 03:35:36;;;;;;;12.95;11.52;;;14.40;99.90;;;;;;5016947;28;20741;-61
2022/04/14 03:38:04;;;;;;;18.45;12.80;;;14.40;99.90;;;;;;5017140;28;20225;-61
2022/04/14 03:40:53;;;;;;;14.48;12.35;;;14.30;99.90;;;;;;5013796;28;20201;-61
2022/04/14 03:43:21;;;;;;;13.63;11.80;;;14.40;99.90;;;;;;5013273;28;20721;-61
2022/04/14 03:45:49;;;;;;;15.93;13.50;;;14.40;99.90;;;;;;5013851;28;20280;-61
2022/04/14 03:48:17;;;;;;;13.80;12.35;;;14.40;99.90;;;;;;5013783;28;20213;-61
2022/04/14 03:50:45;;;;;;;14.38;13.05;;;14.30;99.90;;;;;;5013906;28;20381;-61
2022/04/14 03:53:13;;;;;;;14.45;11.93;;;14.30;99.90;;;;;;5013283;28;20217;-61
2022/04/14 03:55:40;;;;;;;15.07;12.63;;;14.20;99.90;;;;;;5013508;28;20890;-61
2022/04/14 03:58:10;;;;;;;16.95;13.32;;;14.20;99.90;;;;;;5048819;22;20235;-61
2022/04/14 04:00:37;;;;;;;17.50;13.77;;;14.20;99.90;;;;;;5044476;28;20197;-61
2022/04/14 04:03:05;;;;;;;14.00;12.70;;;14.20;99.90;;;;;;5032666;28;20670;-60
2022/04/14 04:05:34;;;;;;;15.80;14.27;;;14.30;99.90;;;;;;5033068;28;20593;-61
2022/04/14 04:08:01;;;;;;;14.02;12.20;;;14.30;99.90;;;;;;5057118;28;20240;-60
2022/04/14 04:10:29;;;;;;;15.25;13.65;;;14.30;99.90;;;;;;5053307;28;20608;-61
2022/04/14 04:12:57;;;;;;;16.38;14.25;;;14.30;99.90;;;;;;5052632;28;20211;-60
2022/04/14 04:15:27;;;;;;;15.95;14.45;;;14.30;99.90;;;;;;5052892;28;20196;-61
2022/04/14 04:17:55;;;;;;;13.00;11.80;;;14.20;99.90;;;;;;5052947;28;20704;-60
2022/04/14 04:20:25;;;;;;;13.43;12.02;;;14.30;99.90;;;;;;5050495;28;20200;-61
2022/04/14 04:22:52;;;;;;;17.17;14.77;;;14.20;99.90;;;;;;5032594;28;20201;-60
2022/04/14 04:25:20;;;;;;;14.65;13.30;;;14.10;99.90;;;;;;5045394;28;20204;-61
2022/04/14 04:27:48;;;;;;;15.70;14.13;;;14.10;99.90;;;;;;5053096;28;20243;-61
2022/04/14 04:30:16;;;;;;;13.05;11.70;;;14.10;99.90;;;;;;5044004;28;20200;-61
2022/04/14 04:32:45;;;;;;;13.15;11.73;;;14.20;99.90;;;;;;5032172;28;20662;-60
2022/04/14 04:35:13;;;;;;;12.45;11.25;;;14.20;99.90;;;;;;5032568;28;20243;-61
2022/04/14 04:37:41;;;;;;;12.18;10.98;;;14.30;99.90;;;;;;5032783;28;20221;-60
2022/04/14 04:40:10;;;;;;;14.07;12.68;;;14.40;99.90;;;;;;5047661;28;20680;-60
2022/04/14 04:42:38;;;;;;;13.30;12.10;;;14.40;99.90;;;;;;5051711;28;20204;-60
2022/04/14 04:45:06;;;;;;;11.63;10.43;;;14.50;99.90;;;;;;5052419;28;20228;-61
2022/04/14 04:47:34;;;;;;;13.13;11.52;;;14.50;99.90;;;;;;5052198;28;20192;-60
2022/04/14 04:50:06;;;;;;;14.18;12.85;;;14.60;99.90;;;;;;5052417;28;20200;-60
2022/04/14 04:52:34;;;;;;;14.55;12.95;;;14.40;99.90;;;;;;5050978;28;20204;-61
2022/04/14 04:55:03;;;;;;;15.82;14.32;;;14.40;99.90;;;;;;5052146;28;20660;-61
2022/04/14 04:57:31;;;;;;;15.73;12.77;;;14.40;99.90;;;;;;5035489;28;20216;-61
2022/04/14 04:59:58;;;;;;;13.95;12.65;;;14.30;99.90;;;;;;5049749;28;20284;-62
2022/04/14 05:02:26;;;;;;;15.27;13.82;;;14.40;99.90;;;;;;5049368;28;20212;-61
2022/04/14 05:04:54;;;;;;;16.98;15.20;;;14.40;99.90;;;;;;5046340;28;20290;-61
2022/04/14 05:07:24;;;;;;;18.58;16.65;;;14.30;99.90;;;;;;5049778;28;20281;-63
2022/04/14 05:09:51;;;;;;;14.15;12.90;;;14.20;99.90;;;;;;5048512;28;20203;-61
2022/04/14 05:12:19;;;;;;;15.02;12.93;;;14.30;99.90;;;;;;5047514;28;20215;-63
2022/04/14 05:14:47;;;;;;;14.23;12.93;;;14.30;99.90;;;;;;5048043;28;21068;-63
2022/04/14 05:17:15;;;;;;;15.65;14.25;;;14.40;99.90;;;;;;5044641;28;20199;-61
2022/04/14 05:19:43;;;;;;;15.52;14.13;;;14.40;99.90;;;;;;5045836;28;21054;-61
2022/04/14 05:22:11;;;;;;;16.52;13.90;;;14.40;99.90;;;;;;5047451;28;20268;-61
2022/04/14 05:24:40;;;;;;;15.25;14.05;;;14.50;99.90;;;;;;5046753;28;20224;-61
2022/04/14 05:27:08;;;;;;;17.67;15.93;;;14.60;99.90;;;;;;5044882;28;21101;-61
2022/04/14 05:29:41;;;;;;;14.68;13.27;;;14.60;99.90;;;;;;5047355;28;20212;-61
2022/04/14 05:32:10;;;;;;;17.75;14.40;;;14.60;99.90;;;;;;5042919;28;20231;-62
2022/04/14 05:34:38;;;;;;;17.38;11.52;;;14.70;99.90;;;;;;5044448;28;20869;-61
2022/04/14 05:37:06;;;;;;;16.02;13.82;;;14.70;99.90;;;;;;5044078;28;20214;-61
2022/04/14 05:39:33;;;;;;;16.08;14.48;;;14.80;99.90;;;;;;5044144;28;20244;-61
2022/04/14 05:42:03;;;;;;;14.02;12.65;;;14.90;99.90;;;;;;5041994;28;20208;-63
2022/04/14 05:44:31;;;;;;;15.10;13.60;;;15.00;99.90;;;;;;5044869;28;20315;-61
2022/04/14 05:46:59;;;;;;;13.32;12.10;;;15.10;99.90;;;;;;5050271;28;20219;-61
2022/04/14 05:49:27;;;;;;;14.88;13.25;;;15.20;99.90;;;;;;5050282;28;20215;-61
2022/04/14 05:51:55;;;;;;;15.15;13.52;;;15.30;99.90;;;;;;5047117;28;20760;-62
2022/04/14 05:54:22;;;;;;;12.85;11.55;;;15.40;99.90;;;;;;5046994;28;20207;-62
2022/04/14 05:56:50;;;;;;;13.02;11.82;;;15.50;99.90;;;;;;5048110;28;20257;-61
2022/04/14 05:59:19;;;;;;;14.48;13.07;;;15.60;99.90;;;;;;5046986;28;21359;-61
2022/04/14 06:01:48;;;;;;;14.07;12.25;;;15.70;99.90;;;;;;5050185;28;20210;-62
2022/04/14 06:04:21;;;;;;;16.23;14.63;;;15.80;99.90;;;;;;5046375;28;20692;-62
2022/04/14 06:06:49;;;;;;;14.38;12.90;;;15.80;99.90;;;;;;5062698;28;20195;-61
2022/04/14 06:09:17;;;;;;;14.18;12.88;;;15.80;99.90;;;;;;5058318;28;20231;-62
2022/04/14 06:11:44;;;;;;;15.88;14.40;;;15.90;99.90;;;;;;5065723;28;20188;-62
2022/04/14 06:14:12;;;;;;;15.10;13.80;;;15.90;99.90;;;;;;5067749;28;20222;-62
2022/04/14 06:16:41;;;;;;;15.85;13.50;;;15.90;99.90;;;;;;5058871;28;20188;-62
2022/04/14 06:19:09;;;;;;;15.00;13.50;;;16.00;99.90;;;;;;5050087;28;20223;-62
2022/04/14 06:21:37;;;;;;;14.93;13.48;;;16.00;99.90;;;;;;5058029;28;20616;-61
2022/04/14 06:24:06;;;;;;;15.93;13.93;;;16.10;99.90;;;;;;5068485;28;20240;-61
2022/04/14 06:26:34;;;;;;;13.90;12.65;;;16.20;99.90;;;;;;5054369;28;20334;-61
2022/04/14 06:29:03;;;;;;;14.85;13.32;;;16.20;99.90;;;;;;5063352;28;20243;-62
2022/04/14 06:31:31;;;;;;;14.23;12.73;;;16.20;99.90;;;;;;5064832;28;20261;-62
2022/04/14 06:34:00;;;;;;;14.90;12.70;;;16.20;99.90;;;;;;5049965;28;20261;-62
2022/04/14 06:36:28;;;;;;;21.98;11.98;;;16.30;99.90;;;;;;5057602;28;20219;-62
2022/04/14 06:38:56;;;;;;;14.32;12.80;;;16.30;99.90;;;;;;5066065;28;20269;-62
2022/04/14 06:41:25;;;;;;;13.48;11.68;;;16.30;99.90;;;;;;5069191;28;20272;-61
2022/04/14 06:43:54;;;;;;;14.10;11.90;;;16.30;99.90;;;;;;5069909;28;20249;-62
2022/04/14 06:46:27;;;;;;;13.00;11.55;;;16.40;99.90;;;;;;5070465;28;20241;-62
2022/04/14 06:48:57;;;;;;;13.27;11.98;;;16.40;99.90;;;;;;5070612;28;20265;-62
2022/04/14 06:51:26;;;;;;;22.63;12.35;;;16.50;99.90;;;;;;5070612;28;20282;-62
2022/04/14 06:53:54;;;;;;;14.00;12.18;;;16.50;99.90;;;;;;5068439;28;20249;-62
2022/04/14 06:56:22;;;;;;;12.35;11.10;;;16.60;99.90;;;;;;5070280;28;20198;-62
2022/04/14 06:58:49;;;;;;;12.85;11.50;;;16.60;99.90;;;;;;5070140;28;20227;-62
2022/04/14 07:01:17;;;;;;;14.52;11.63;;;16.70;99.90;;;;;;5070663;28;20195;-62
2022/04/14 07:03:45;;;;;;;14.10;12.63;;;16.70;99.90;;;;;;5069633;28;20278;-62
2022/04/14 07:06:13;;;;;;;15.50;14.00;;;16.60;99.90;;;;;;5070514;28;20223;-62
2022/04/14 07:08:42;;;;;;;13.30;12.00;;;16.60;99.90;;;;;;5070491;28;20216;-61
2022/04/14 07:11:10;;;;;;;13.63;12.20;;;16.50;99.90;;;;;;5070177;28;20223;-63
2022/04/14 07:13:38;;;;;;;14.35;12.25;;;16.60;99.90;;;;;;5069997;28;20257;-62
2022/04/14 07:16:06;;;;;;;14.05;12.65;;;16.60;99.90;;;;;;5072803;28;20613;-62
2022/04/14 07:18:34;;;;;;;12.43;11.30;;;16.70;99.90;;;;;;5074173;28;20250;-62
2022/04/14 07:21:02;;;;;;;13.57;12.27;;;16.50;99.90;;;;;;5073832;28;20195;-62
2022/04/14 07:23:30;;;;;;;14.52;11.90;;;16.60;99.90;;;;;;5073423;28;20191;-62
2022/04/14 07:26:00;;;;;;;13.77;12.45;;;16.60;99.90;;;;;;5073838;28;20279;-62
2022/04/14 07:28:27;;;;;;;13.10;11.80;;;16.60;99.90;;;;;;5074164;28;20280;-62
2022/04/14 07:30:56;;;;;;;14.32;11.98;;;16.70;99.90;;;;;;5073929;28;20195;-63
2022/04/14 07:33:24;;;;;;;17.02;13.07;;;16.70;99.90;;;;;;5073319;28;20195;-62
2022/04/14 07:35:52;;;;;;;16.52;14.90;;;16.70;99.90;;;;;;5073800;28;20211;-62
2022/04/14 07:38:20;;;;;;;16.65;15.05;;;16.70;99.90;;;;;;5073518;28;20629;-62
2022/04/14 07:40:48;;;;;;;13.95;12.60;;;16.70;99.90;;;;;;5073439;28;20223;-63
2022/04/14 07:43:19;;;;;;;19.38;16.30;;;16.80;99.90;;;;;;5073214;28;20191;-62
2022/04/14 07:45:47;;;;;;;15.32;13.80;;;16.70;99.90;;;;;;5073657;28;20200;-62
2022/04/14 07:48:16;;;;;;;15.95;14.38;;;16.70;99.90;;;;;;5073560;28;20294;-62
2022/04/14 07:50:44;;;;;;;13.80;12.57;;;16.70;99.90;;;;;;5073363;28;20196;-63
2022/04/14 07:53:11;;;;;;;16.08;14.40;;;16.90;99.90;;;;;;5071153;28;20215;-62
2022/04/14 07:55:40;;;;;;;13.82;12.52;;;16.80;99.90;;;;;;5073481;28;20196;-62
2022/04/14 07:58:08;;;;;;;19.08;15.05;;;16.90;99.90;;;;;;5073196;28;20230;-63
2022/04/14 08:00:38;;;;;;;15.05;12.63;;;16.80;99.90;;;;;;5073533;28;20214;-63
2022/04/14 08:03:09;;;;;;;14.40;13.00;;;16.90;99.90;;;;;;5072649;28;20191;-63
2022/04/14 08:05:38;;;;;;;15.32;13.70;;;17.00;99.90;;;;;;5073368;28;20730;-63
2022/04/14 08:08:08;;;;;;;14.02;12.55;;;17.10;99.90;;;;;;5073460;28;20214;-63
2022/04/14 08:10:36;;;;;;;14.45;12.73;;;17.20;99.90;;;;;;5073186;28;20687;-62
2022/04/14 08:13:05;;;;;;;15.10;12.18;;;17.10;99.90;;;;;;5072559;28;20200;-62
2022/04/14 08:15:34;;;;;;;13.10;11.75;;;17.10;99.90;;;;;;5072950;28;20206;-63
2022/04/14 08:18:06;;;;;;;14.23;11.43;;;17.10;99.90;;;;;;5073135;28;20241;-62
2022/04/14 08:20:34;;;;;;;18.10;12.73;;;17.10;99.90;;;;;;5073069;28;20233;-62
2022/04/14 08:23:04;;;;;;;12.98;11.50;;;17.10;99.90;;;;;;5072501;28;20195;-63
2022/04/14 08:25:34;;;;;;;14.00;12.70;;;17.10;99.90;;;;;;5072698;28;20188;-63
2022/04/14 08:28:05;;;;;;;14.00;12.50;;;17.10;99.90;;;;;;5072572;28;20219;-63
2022/04/14 08:30:34;;;;;;;14.82;13.32;;;17.10;99.90;;;;;;5072961;28;20179;-62
2022/04/14 08:33:06;;;;;;;16.02;12.25;;;17.20;99.90;;;;;;5071899;28;20222;-62
2022/04/14 08:35:35;;;;;;;13.98;12.63;;;17.30;99.90;;;;;;5072722;28;20235;-62
2022/04/14 08:38:06;;;;;;;15.23;13.70;;;17.30;99.90;;;;;;5072621;28;20323;-62
2022/04/14 08:40:35;;;;;;;14.98;13.13;;;17.20;99.90;;;;;;5072544;28;20587;-63
2022/04/14 08:43:05;;;;;;;13.57;12.13;;;17.20;99.90;;;;;;5071775;28;20474;-63
2022/04/14 08:45:34;;;;;;;14.27;12.93;;;17.20;99.90;;;;;;5072528;28;20198;-62
2022/04/14 08:48:05;;;;;;;14.73;13.35;;;17.40;99.90;;;;;;5072462;28;20682;-62
2022/04/14 08:50:33;;;;;;;12.98;11.55;;;17.40;99.90;;;;;;5072551;28;20234;-63
2022/04/14 08:53:05;;;;;;;14.88;12.57;;;17.40;99.90;;;;;;5069893;28;20199;-63
2022/04/14 08:55:33;;;;;;;15.85;14.43;;;17.30;99.90;;;;;;5072008;28;20618;-62
2022/04/14 08:58:01;;;;;;;14.75;13.30;;;17.20;99.90;;;;;;5071957;28;20297;-63
2022/04/14 09:00:30;;;;;;;14.80;13.23;;;17.20;99.90;;;;;;5072314;28;20214;-63
2022/04/14 09:03:01;;;;;;;13.77;12.30;;;17.30;99.90;;;;;;5071711;28;20586;-63
2022/04/14 09:05:30;;;;;;;13.27;11.98;;;17.40;99.90;;;;;;5072240;28;20276;-63
2022/04/14 09:07:58;;;;;;;11.55;10.45;;;17.60;99.90;;;;;;5072170;28;20739;-63
2022/04/14 09:10:27;;;;;;;11.50;10.30;;;17.80;99.90;;;;;;5072011;28;20188;-63
2022/04/14 09:12:54;;;;;;;12.05;9.38;;;18.10;99.90;;;;;;5070955;28;20222;-62
2022/04/14 09:15:23;;;;;;;11.48;10.27;;;18.30;99.90;;;;;;5071703;28;20566;-63
2022/04/14 09:17:56;;;;;;;9.98;8.40;;;18.60;99.90;;;;;;5072052;28;20211;-62
2022/04/14 09:20:34;;;;;;;10.15;9.15;;;18.80;99.90;;;;;;5071970;28;20304;-62
2022/04/14 09:23:18;;;;;;;9.82;8.82;;;19.00;99.90;;;;;;5071017;28;20206;-63
2022/04/14 09:25:47;;;;;;;8.75;7.85;;;19.00;99.90;;;;;;5071781;28;20652;-63
2022/04/14 09:28:16;;;;;;;8.32;6.97;;;19.00;99.90;;;;;;5071371;28;20300;-62
2022/04/14 09:31:02;;;;;;;7.75;6.75;;;19.00;99.90;;;;;;5071812;28;20223;-60
2022/04/14 09:33:31;;;;;;;8.30;6.57;;;18.90;99.90;;;;;;5070845;28;20574;-62
2022/04/14 09:36:07;;;;;;;9.82;6.43;;;18.80;99.90;;;;;;5070873;28;20198;-63
2022/04/14 09:38:55;;;;;;;7.03;6.43;;;18.80;99.90;;;;;;5070787;28;20259;-63
2022/04/14 09:41:41;;;;;;;7.80;7.00;;;18.80;99.90;;;;;;5071324;28;20261;-62
2022/04/14 09:44:10;;;;;;;7.90;7.07;;;18.70;99.90;;;;;;5070789;28;20209;-62
2022/04/14 09:46:39;;;;;;;7.53;6.90;;;18.60;99.90;;;;;;5070359;28;20245;-62
2022/04/14 09:49:09;;;;;;;7.70;7.05;;;18.40;99.90;;;;;;5071632;28;20211;-63
2022/04/14 09:51:41;;;;;;;7.82;6.80;;;18.40;99.90;;;;;;5071085;28;20191;-62
2022/04/14 09:54:14;;;;;;;8.68;7.82;;;18.00;99.90;;;;;;5069206;28;20230;-63
2022/04/14 09:56:48;;;;;;;8.32;7.53;;;17.80;99.90;;;;;;5070711;28;20196;-63
2022/04/14 09:59:17;;;;;;;7.80;7.20;;;17.70;99.90;;;;;;5065654;22;20236;-63
2022/04/14 10:01:46;;;;;;;8.60;7.80;;;17.60;99.90;;;;;;5050747;28;20243;-63
2022/04/14 10:04:32;;;;;;;8.25;7.55;;;17.50;99.90;;;;;;5050882;28;20192;-63
2022/04/14 10:07:11;;;;;;;7.82;7.03;;;17.50;99.90;;;;;;5050958;28;20191;-63
2022/04/14 10:09:40;;;;;;;7.82;7.03;;;17.40;99.90;;;;;;5065601;28;20219;-64
2022/04/14 10:12:30;;;;;;;7.75;7.00;;;17.30;99.90;;;;;;5070233;28;20184;-63
2022/04/14 10:15:01;;;;;;;7.53;6.82;;;17.20;99.90;;;;;;5071118;28;20337;-64
2022/04/14 10:17:31;;;;;;;7.40;6.65;;;17.00;99.90;;;;;;5070984;28;20660;-64
2022/04/14 10:19:59;;;;;;;7.30;6.70;;;17.00;99.90;;;;;;5070917;28;20266;-63
2022/04/14 10:22:29;;;;;;;8.18;7.38;;;17.00;99.90;;;;;;5070387;28;20229;-64
2022/04/14 10:24:57;;;;;;;8.63;6.22;;;17.00;99.90;;;;;;5070612;28;20207;-64
2022/04/14 10:27:26;;;;;;;8.80;7.70;;;17.00;99.90;;;;;;5071044;28;20252;-63
2022/04/14 10:29:55;;;;;;;10.80;7.85;;;17.00;99.90;;;;;;5070590;28;20306;-63
2022/04/14 10:32:24;;;;;;;8.20;6.10;;;17.20;99.90;;;;;;5070202;28;20244;-63
2022/04/14 10:34:52;;;;;;;6.85;5.47;;;17.30;99.90;;;;;;5071189;28;20612;-63
2022/04/14 10:37:28;;;;;;;6.97;5.72;;;17.50;99.90;;;;;;5070945;28;20195;-63
2022/04/14 10:39:57;;;;;;;5.82;5.32;;;17.70;99.90;;;;;;5070964;28;20211;-63
2022/04/14 10:42:27;;;;;;;5.88;5.38;;;18.10;99.90;;;;;;5069808;28;20276;-63
2022/04/14 10:44:56;;;;;;;7.07;4.55;;;18.30;99.90;;;;;;5071123;28;20199;-64
2022/04/14 10:47:36;;;;;;;5.40;4.90;;;18.40;99.90;;;;;;5070753;28;20199;-63
2022/04/14 10:50:05;;;;;;;6.60;5.32;;;18.70;99.90;;;;;;5072925;28;20301;-64
2022/04/14 10:53:01;;;;;;;5.53;4.45;;;18.70;99.90;;;;;;5073005;28;20206;-63
2022/04/14 10:55:39;;;;;;;5.15;4.65;;;18.80;99.90;;;;;;5074793;28;20209;-63
2022/04/14 10:58:28;;;;;;;7.13;5.97;;;18.80;99.90;;;;;;5074373;28;20203;-63
2022/04/14 11:00:56;;;;;;;12.30;5.75;;;18.80;99.90;;;;;;5074412;28;20763;-64
2022/04/14 11:03:45;;;;;;;6.03;5.43;;;18.80;99.90;;;;;;5073691;28;20265;-63
2022/04/14 11:06:48;;;;;;;7.10;5.13;;;18.90;99.90;;;;;;5074603;28;20237;-64
2022/04/14 11:09:50;;;;;;;5.50;4.97;;;19.30;99.90;;;;;;5074342;28;20621;-63
2022/04/14 11:12:21;;;;;;;6.43;4.88;;;19.90;99.90;;;;;;5073625;28;20605;-64
2022/04/14 11:14:51;;;;;;;4.65;4.13;;;20.30;99.90;;;;;;5074515;28;20253;-64
2022/04/14 11:17:57;;;;;;;5.07;4.65;;;20.70;99.90;;;;;;5074759;28;20191;-61
2022/04/14 11:21:05;;;;;;;7.25;6.30;;;21.20;99.90;;;;;;5074508;28;20218;-63
2022/04/14 11:23:35;;;;;;;8.77;6.35;;;21.50;99.90;;;;;;5073625;28;20254;-63
2022/04/14 11:26:06;;;;;;;6.95;6.10;;;21.60;99.90;;;;;;5074394;28;20196;-65
2022/04/14 11:28:37;;;;;;;6.55;5.60;;;21.70;99.90;;;;;;5074166;28;20249;-64
2022/04/14 11:31:23;;;;;;;8.20;6.30;;;21.50;99.90;;;;;;5074397;28;20191;-65
2022/04/14 11:33:53;;;;;;;5.80;5.28;;;21.40;99.90;;;;;;5073832;28;20764;-64
2022/04/14 11:36:25;;;;;;;7.10;6.47;;;21.20;99.90;;;;;;5056072;28;20203;-64
2022/04/14 11:38:59;;;;;;;5.78;5.30;;;21.20;99.90;;;;;;5073951;28;20317;-64
2022/04/14 11:41:32;;;;;;;9.15;5.95;;;21.40;99.90;;;;;;5074162;28;20239;-64
2022/04/14 11:44:03;;;;;;;7.20;6.50;;;21.80;99.90;;;;;;5073426;28;20616;-64
2022/04/14 11:46:32;;;;;;;6.50;5.80;;;21.50;99.90;;;;;;5073863;28;20317;-64
2022/04/14 11:49:01;;;;;;;6.93;6.35;;;21.50;99.90;;;;;;5073344;28;20241;-64
2022/04/14 11:51:29;;;;;;;10.32;8.00;;;21.40;99.90;;;;;;5073925;28;20718;-64
2022/04/14 11:53:57;;;;;;;8.10;7.30;;;21.30;99.90;;;;;;5071546;28;20191;-64
2022/04/14 11:56:50;;;;;;;7.80;6.35;;;21.20;99.90;;;;;;5073533;28;20195;-64
2022/04/14 11:59:21;;;;;;;9.20;7.45;;;21.10;99.90;;;;;;5073423;28;20231;-64
2022/04/14 12:01:50;;;;;;;7.43;6.72;;;21.00;99.90;;;;;;5073039;28;20247;-64
2022/04/14 12:04:18;;;;;;;8.45;6.70;;;20.90;99.90;;;;;;5073273;28;20199;-64
2022/04/14 12:06:54;;;;;;;8.52;7.70;;;20.80;99.90;;;;;;5073522;28;20570;-64
2022/04/14 12:09:24;;;;;;;8.70;7.20;;;20.40;99.90;;;;;;5072983;28;20651;-63
2022/04/14 12:11:53;;;;;;;9.98;6.90;;;20.20;99.90;;;;;;5073595;28;20196;-64
2022/04/14 12:14:22;;;;;;;7.95;7.15;;;20.30;99.90;;;;;;5073284;28;20301;-64
2022/04/14 12:16:52;;;;;;;10.43;7.50;;;20.50;99.90;;;;;;5073057;28;20252;-63
2022/04/14 12:19:21;;;;;;;8.43;7.68;;;20.90;99.90;;;;;;5073266;28;20306;-64
2022/04/14 12:22:02;;;;;;;9.25;8.30;;;21.20;99.90;;;;;;5073127;28;20215;-64
2022/04/14 12:24:30;;;;;;;9.68;8.65;;;21.80;99.90;;;;;;5073524;28;20202;-63
2022/04/14 12:26:58;;;;;;;13.23;9.25;;;21.90;99.90;;;;;;5073327;28;20227;-63
2022/04/14 12:29:28;;;;;;;8.75;7.90;;;22.00;99.90;;;;;;5072906;28;20704;-62
2022/04/14 12:31:57;;;;;;;7.45;6.85;;;22.00;99.90;;;;;;5072678;28;20604;-62
2022/04/14 12:34:24;;;;;;;9.07;7.43;;;22.30;99.90;;;;;;5072968;28;20191;-63
2022/04/14 12:37:08;;;;;;;8.77;7.78;;;22.30;99.90;;;;;;5072846;28;20191;-62
2022/04/14 12:39:36;;;;;;;8.05;7.25;;;22.10;99.90;;;;;;5072757;28;20246;-63
2022/04/14 12:42:04;;;;;;;8.93;7.93;;;21.80;99.90;;;;;;5072037;28;20639;-63
2022/04/14 12:44:44;;;;;;;7.15;6.45;;;21.60;99.90;;;;;;5072679;28;20214;-62
2022/04/14 12:47:13;;;;;;;8.07;7.35;;;21.60;99.90;;;;;;5072760;28;20238;-63
2022/04/14 12:49:42;;;;;;;8.40;7.60;;;21.50;99.90;;;;;;5072626;28;20258;-63